sensor_id;sensor_type;location;lat;lon;timestamp;P1;durP1;ratioP1;P2;durP2;ratioP2
67981;SDS011;64109;52.148;4.466;2023-06-26T00:02:23;2.88;;;2.03;;
67981;SDS011;64109;52.148;4.466;2023-06-26T00:04:49;3.38;;;1.85;;
67981;SDS011;64109;52.148;4.466;2023-06-26T00:07:18;3.25;;;2.13;;
67981;SDS011;64109;52.148;4.466;2023-06-26T00:09:44;3.00;;;1.90;;
67981;SDS011;64109;52.148;4.466;2023-06-26T00:12:10;2.90;;;2.10;;
67981;SDS011;64109;52.148;4.466;2023-06-26T00:14:36;3.25;;;1.98;;
67981;SDS011;64109;52.148;4.466;2023-06-26T00:17:02;3.35;;;2.15;;
67981;SDS011;64109;52.148;4.466;2023-06-26T00:19:28;4.40;;;3.17;;
67981;SDS011;64109;52.148;4.466;2023-06-26T00:21:54;2.97;;;2.00;;
67981;SDS011;64109;52.148;4.466;2023-06-26T00:24:20;3.17;;;2.00;;
67981;SDS011;64109;52.148;4.466;2023-06-26T00:26:47;2.95;;;2.17;;
67981;SDS011;64109;52.148;4.466;2023-06-26T00:29:13;3.40;;;2.55;;
67981;SDS011;64109;52.148;4.466;2023-06-26T00:31:39;2.85;;;1.75;;
67981;SDS011;64109;52.148;4.466;2023-06-26T00:34:05;3.28;;;1.88;;
67981;SDS011;64109;52.148;4.466;2023-06-26T00:36:31;3.88;;;2.10;;
67981;SDS011;64109;52.148;4.466;2023-06-26T00:38:58;4.45;;;2.40;;
67981;SDS011;64109;52.148;4.466;2023-06-26T00:41:24;2.55;;;1.58;;
67981;SDS011;64109;52.148;4.466;2023-06-26T00:43:50;3.13;;;1.90;;
67981;SDS011;64109;52.148;4.466;2023-06-26T00:46:16;2.95;;;2.20;;
67981;SDS011;64109;52.148;4.466;2023-06-26T00:48:43;2.70;;;1.77;;
67981;SDS011;64109;52.148;4.466;2023-06-26T00:51:09;2.97;;;2.03;;
67981;SDS011;64109;52.148;4.466;2023-06-26T00:53:35;3.42;;;2.15;;
67981;SDS011;64109;52.148;4.466;2023-06-26T00:56:02;2.95;;;2.00;;
67981;SDS011;64109;52.148;4.466;2023-06-26T00:58:28;2.65;;;1.80;;
67981;SDS011;64109;52.148;4.466;2023-06-26T01:00:55;2.92;;;2.00;;
67981;SDS011;64109;52.148;4.466;2023-06-26T01:03:22;3.10;;;2.20;;
67981;SDS011;64109;52.148;4.466;2023-06-26T01:05:48;3.33;;;2.20;;
67981;SDS011;64109;52.148;4.466;2023-06-26T01:08:16;3.22;;;2.03;;
67981;SDS011;64109;52.148;4.466;2023-06-26T01:10:42;2.53;;;1.95;;
67981;SDS011;64109;52.148;4.466;2023-06-26T01:13:08;2.75;;;2.10;;
67981;SDS011;64109;52.148;4.466;2023-06-26T01:15:34;2.97;;;2.15;;
67981;SDS011;64109;52.148;4.466;2023-06-26T01:18:00;2.50;;;1.75;;
67981;SDS011;64109;52.148;4.466;2023-06-26T01:20:28;4.45;;;2.15;;
67981;SDS011;64109;52.148;4.466;2023-06-26T01:25:32;3.40;;;2.70;;
67981;SDS011;64109;52.148;4.466;2023-06-26T01:28:03;5.53;;;2.95;;
67981;SDS011;64109;52.148;4.466;2023-06-26T01:30:30;2.92;;;2.10;;
67981;SDS011;64109;52.148;4.466;2023-06-26T01:32:57;3.17;;;1.80;;
67981;SDS011;64109;52.148;4.466;2023-06-26T01:35:23;2.78;;;2.00;;
67981;SDS011;64109;52.148;4.466;2023-06-26T01:37:50;3.33;;;2.05;;
67981;SDS011;64109;52.148;4.466;2023-06-26T01:40:16;3.78;;;2.05;;
67981;SDS011;64109;52.148;4.466;2023-06-26T01:42:42;3.13;;;2.10;;
67981;SDS011;64109;52.148;4.466;2023-06-26T01:45:24;3.78;;;2.03;;
67981;SDS011;64109;52.148;4.466;2023-06-26T01:47:51;3.28;;;2.78;;
67981;SDS011;64109;52.148;4.466;2023-06-26T01:50:28;3.33;;;2.10;;
67981;SDS011;64109;52.148;4.466;2023-06-26T01:53:02;4.05;;;2.20;;
67981;SDS011;64109;52.148;4.466;2023-06-26T01:55:40;3.10;;;2.08;;
67981;SDS011;64109;52.148;4.466;2023-06-26T01:58:07;2.75;;;1.98;;
67981;SDS011;64109;52.148;4.466;2023-06-26T02:00:34;3.85;;;2.03;;
67981;SDS011;64109;52.148;4.466;2023-06-26T02:03:01;3.47;;;2.05;;
67981;SDS011;64109;52.148;4.466;2023-06-26T02:05:28;4.32;;;1.98;;
67981;SDS011;64109;52.148;4.466;2023-06-26T02:07:55;3.35;;;2.72;;
67981;SDS011;64109;52.148;4.466;2023-06-26T02:10:21;3.90;;;2.75;;
67981;SDS011;64109;52.148;4.466;2023-06-26T02:12:47;2.83;;;1.90;;
67981;SDS011;64109;52.148;4.466;2023-06-26T02:15:13;3.33;;;1.90;;
67981;SDS011;64109;52.148;4.466;2023-06-26T02:17:39;4.38;;;2.08;;
67981;SDS011;64109;52.148;4.466;2023-06-26T02:20:06;5.35;;;1.92;;
67981;SDS011;64109;52.148;4.466;2023-06-26T02:22:34;4.57;;;2.35;;
67981;SDS011;64109;52.148;4.466;2023-06-26T02:25:00;4.57;;;1.77;;
67981;SDS011;64109;52.148;4.466;2023-06-26T02:27:26;3.47;;;1.85;;
67981;SDS011;64109;52.148;4.466;2023-06-26T02:29:52;3.38;;;1.80;;
67981;SDS011;64109;52.148;4.466;2023-06-26T02:32:18;3.60;;;2.90;;
67981;SDS011;64109;52.148;4.466;2023-06-26T02:34:44;6.65;;;2.95;;
67981;SDS011;64109;52.148;4.466;2023-06-26T02:37:10;4.95;;;1.77;;
67981;SDS011;64109;52.148;4.466;2023-06-26T02:39:36;4.25;;;3.13;;
67981;SDS011;64109;52.148;4.466;2023-06-26T02:42:02;3.38;;;2.13;;
67981;SDS011;64109;52.148;4.466;2023-06-26T02:44:28;4.38;;;2.22;;
67981;SDS011;64109;52.148;4.466;2023-06-26T02:46:54;3.47;;;2.10;;
67981;SDS011;64109;52.148;4.466;2023-06-26T02:49:20;3.13;;;1.88;;
67981;SDS011;64109;52.148;4.466;2023-06-26T02:51:46;4.43;;;2.10;;
67981;SDS011;64109;52.148;4.466;2023-06-26T02:54:12;4.40;;;2.00;;
67981;SDS011;64109;52.148;4.466;2023-06-26T02:56:38;3.55;;;2.00;;
67981;SDS011;64109;52.148;4.466;2023-06-26T02:59:04;5.28;;;2.30;;
67981;SDS011;64109;52.148;4.466;2023-06-26T03:01:30;5.80;;;2.50;;
67981;SDS011;64109;52.148;4.466;2023-06-26T03:03:56;2.78;;;1.90;;
67981;SDS011;64109;52.148;4.466;2023-06-26T03:06:22;3.80;;;1.98;;
67981;SDS011;64109;52.148;4.466;2023-06-26T03:08:48;4.55;;;2.10;;
67981;SDS011;64109;52.148;4.466;2023-06-26T03:11:14;4.57;;;1.95;;
67981;SDS011;64109;52.148;4.466;2023-06-26T03:13:40;2.85;;;1.67;;
67981;SDS011;64109;52.148;4.466;2023-06-26T03:16:06;4.60;;;2.90;;
67981;SDS011;64109;52.148;4.466;2023-06-26T03:18:32;3.22;;;1.85;;
67981;SDS011;64109;52.148;4.466;2023-06-26T03:20:59;4.55;;;2.97;;
67981;SDS011;64109;52.148;4.466;2023-06-26T03:23:25;4.45;;;2.20;;
67981;SDS011;64109;52.148;4.466;2023-06-26T03:25:51;4.68;;;2.75;;
67981;SDS011;64109;52.148;4.466;2023-06-26T03:28:17;4.13;;;2.45;;
67981;SDS011;64109;52.148;4.466;2023-06-26T03:30:43;4.20;;;2.30;;
67981;SDS011;64109;52.148;4.466;2023-06-26T03:33:09;2.97;;;1.92;;
67981;SDS011;64109;52.148;4.466;2023-06-26T03:35:35;4.07;;;2.13;;
67981;SDS011;64109;52.148;4.466;2023-06-26T03:38:03;4.18;;;2.95;;
67981;SDS011;64109;52.148;4.466;2023-06-26T03:40:30;4.03;;;1.80;;
67981;SDS011;64109;52.148;4.466;2023-06-26T03:42:56;4.80;;;2.38;;
67981;SDS011;64109;52.148;4.466;2023-06-26T03:45:22;3.63;;;2.10;;
67981;SDS011;64109;52.148;4.466;2023-06-26T03:47:48;3.67;;;1.90;;
67981;SDS011;64109;52.148;4.466;2023-06-26T03:50:17;3.47;;;2.22;;
67981;SDS011;64109;52.148;4.466;2023-06-26T03:52:44;3.65;;;2.67;;
67981;SDS011;64109;52.148;4.466;2023-06-26T03:55:10;6.07;;;2.78;;
67981;SDS011;64109;52.148;4.466;2023-06-26T03:57:36;3.67;;;2.28;;
67981;SDS011;64109;52.148;4.466;2023-06-26T04:00:02;3.42;;;2.20;;
67981;SDS011;64109;52.148;4.466;2023-06-26T04:02:34;5.28;;;2.03;;
67981;SDS011;64109;52.148;4.466;2023-06-26T04:05:00;3.40;;;2.03;;
67981;SDS011;64109;52.148;4.466;2023-06-26T04:07:26;3.53;;;1.85;;
67981;SDS011;64109;52.148;4.466;2023-06-26T04:09:52;3.75;;;2.03;;
67981;SDS011;64109;52.148;4.466;2023-06-26T04:12:18;5.63;;;2.78;;
67981;SDS011;64109;52.148;4.466;2023-06-26T04:14:44;4.90;;;1.63;;
67981;SDS011;64109;52.148;4.466;2023-06-26T04:17:10;3.92;;;2.53;;
67981;SDS011;64109;52.148;4.466;2023-06-26T04:19:36;3.58;;;2.25;;
67981;SDS011;64109;52.148;4.466;2023-06-26T04:22:02;2.95;;;1.70;;
67981;SDS011;64109;52.148;4.466;2023-06-26T04:24:29;4.40;;;1.75;;
67981;SDS011;64109;52.148;4.466;2023-06-26T04:26:55;4.70;;;2.28;;
67981;SDS011;64109;52.148;4.466;2023-06-26T04:29:25;3.00;;;1.83;;
67981;SDS011;64109;52.148;4.466;2023-06-26T04:31:52;4.63;;;2.08;;
67981;SDS011;64109;52.148;4.466;2023-06-26T04:34:23;4.22;;;2.08;;
67981;SDS011;64109;52.148;4.466;2023-06-26T04:36:49;2.90;;;2.45;;
67981;SDS011;64109;52.148;4.466;2023-06-26T04:39:15;5.95;;;2.25;;
67981;SDS011;64109;52.148;4.466;2023-06-26T04:41:41;3.58;;;2.83;;
67981;SDS011;64109;52.148;4.466;2023-06-26T04:44:08;3.25;;;1.75;;
67981;SDS011;64109;52.148;4.466;2023-06-26T04:46:34;2.75;;;1.70;;
67981;SDS011;64109;52.148;4.466;2023-06-26T04:49:00;4.45;;;2.22;;
67981;SDS011;64109;52.148;4.466;2023-06-26T04:51:28;3.80;;;1.80;;
67981;SDS011;64109;52.148;4.466;2023-06-26T04:53:54;3.53;;;2.38;;
67981;SDS011;64109;52.148;4.466;2023-06-26T04:56:21;2.88;;;1.60;;
67981;SDS011;64109;52.148;4.466;2023-06-26T04:58:47;3.55;;;1.83;;
67981;SDS011;64109;52.148;4.466;2023-06-26T05:01:13;3.47;;;2.08;;
67981;SDS011;64109;52.148;4.466;2023-06-26T05:03:39;4.47;;;2.65;;
67981;SDS011;64109;52.148;4.466;2023-06-26T05:06:05;3.53;;;2.75;;
67981;SDS011;64109;52.148;4.466;2023-06-26T05:08:31;3.60;;;2.33;;
67981;SDS011;64109;52.148;4.466;2023-06-26T05:10:57;3.78;;;2.13;;
67981;SDS011;64109;52.148;4.466;2023-06-26T05:13:24;3.88;;;2.00;;
67981;SDS011;64109;52.148;4.466;2023-06-26T05:15:51;4.47;;;2.63;;
67981;SDS011;64109;52.148;4.466;2023-06-26T05:18:17;3.17;;;2.10;;
67981;SDS011;64109;52.148;4.466;2023-06-26T05:20:43;3.42;;;2.75;;
67981;SDS011;64109;52.148;4.466;2023-06-26T05:23:10;4.28;;;1.83;;
67981;SDS011;64109;52.148;4.466;2023-06-26T05:25:37;4.47;;;2.03;;
67981;SDS011;64109;52.148;4.466;2023-06-26T05:28:03;4.82;;;2.92;;
67981;SDS011;64109;52.148;4.466;2023-06-26T05:30:35;3.13;;;2.00;;
67981;SDS011;64109;52.148;4.466;2023-06-26T05:33:02;3.25;;;2.20;;
67981;SDS011;64109;52.148;4.466;2023-06-26T05:35:29;4.15;;;2.03;;
67981;SDS011;64109;52.148;4.466;2023-06-26T05:37:55;2.95;;;1.52;;
67981;SDS011;64109;52.148;4.466;2023-06-26T05:40:21;3.63;;;1.95;;
67981;SDS011;64109;52.148;4.466;2023-06-26T05:42:48;3.63;;;2.35;;
67981;SDS011;64109;52.148;4.466;2023-06-26T05:45:14;3.28;;;1.85;;
67981;SDS011;64109;52.148;4.466;2023-06-26T05:47:40;3.63;;;1.98;;
67981;SDS011;64109;52.148;4.466;2023-06-26T05:50:07;3.22;;;1.83;;
67981;SDS011;64109;52.148;4.466;2023-06-26T05:52:33;4.50;;;1.85;;
67981;SDS011;64109;52.148;4.466;2023-06-26T05:55:00;3.92;;;1.90;;
67981;SDS011;64109;52.148;4.466;2023-06-26T05:57:26;4.03;;;1.63;;
67981;SDS011;64109;52.148;4.466;2023-06-26T05:59:53;4.13;;;1.90;;
67981;SDS011;64109;52.148;4.466;2023-06-26T06:02:19;3.78;;;2.72;;
67981;SDS011;64109;52.148;4.466;2023-06-26T06:04:45;3.22;;;1.58;;
67981;SDS011;64109;52.148;4.466;2023-06-26T06:07:11;2.45;;;1.67;;
67981;SDS011;64109;52.148;4.466;2023-06-26T06:09:37;4.82;;;2.55;;
67981;SDS011;64109;52.148;4.466;2023-06-26T06:12:04;4.30;;;2.35;;
67981;SDS011;64109;52.148;4.466;2023-06-26T06:14:30;2.60;;;1.65;;
67981;SDS011;64109;52.148;4.466;2023-06-26T06:16:56;4.07;;;1.60;;
67981;SDS011;64109;52.148;4.466;2023-06-26T06:19:22;2.88;;;1.70;;
67981;SDS011;64109;52.148;4.466;2023-06-26T06:21:48;2.90;;;1.60;;
67981;SDS011;64109;52.148;4.466;2023-06-26T06:24:14;4.07;;;1.73;;
67981;SDS011;64109;52.148;4.466;2023-06-26T06:26:40;3.53;;;2.58;;
67981;SDS011;64109;52.148;4.466;2023-06-26T06:29:06;3.15;;;2.67;;
67981;SDS011;64109;52.148;4.466;2023-06-26T06:31:32;4.07;;;2.67;;
67981;SDS011;64109;52.148;4.466;2023-06-26T06:33:58;3.95;;;1.95;;
67981;SDS011;64109;52.148;4.466;2023-06-26T06:36:24;3.60;;;1.73;;
67981;SDS011;64109;52.148;4.466;2023-06-26T06:38:50;2.95;;;1.73;;
67981;SDS011;64109;52.148;4.466;2023-06-26T06:41:16;3.42;;;2.47;;
67981;SDS011;64109;52.148;4.466;2023-06-26T06:43:42;4.72;;;1.30;;
67981;SDS011;64109;52.148;4.466;2023-06-26T06:46:08;2.70;;;1.52;;
67981;SDS011;64109;52.148;4.466;2023-06-26T06:48:35;5.25;;;2.60;;
67981;SDS011;64109;52.148;4.466;2023-06-26T06:51:01;4.90;;;2.50;;
67981;SDS011;64109;52.148;4.466;2023-06-26T06:53:27;3.20;;;2.22;;
67981;SDS011;64109;52.148;4.466;2023-06-26T06:55:53;2.78;;;1.48;;
67981;SDS011;64109;52.148;4.466;2023-06-26T06:58:19;3.10;;;2.05;;
67981;SDS011;64109;52.148;4.466;2023-06-26T07:00:45;3.65;;;2.35;;
67981;SDS011;64109;52.148;4.466;2023-06-26T07:03:11;3.38;;;2.05;;
67981;SDS011;64109;52.148;4.466;2023-06-26T07:05:37;3.85;;;1.90;;
67981;SDS011;64109;52.148;4.466;2023-06-26T07:08:03;2.42;;;1.27;;
67981;SDS011;64109;52.148;4.466;2023-06-26T07:10:30;2.70;;;1.45;;
67981;SDS011;64109;52.148;4.466;2023-06-26T07:12:56;3.17;;;1.67;;
67981;SDS011;64109;52.148;4.466;2023-06-26T07:15:22;3.20;;;1.70;;
67981;SDS011;64109;52.148;4.466;2023-06-26T07:17:48;3.75;;;2.15;;
67981;SDS011;64109;52.148;4.466;2023-06-26T07:20:14;2.42;;;1.30;;
67981;SDS011;64109;52.148;4.466;2023-06-26T07:22:40;3.08;;;1.35;;
67981;SDS011;64109;52.148;4.466;2023-06-26T07:25:07;1.95;;;1.20;;
67981;SDS011;64109;52.148;4.466;2023-06-26T07:27:37;3.75;;;2.28;;
67981;SDS011;64109;52.148;4.466;2023-06-26T07:30:03;2.83;;;1.38;;
67981;SDS011;64109;52.148;4.466;2023-06-26T07:32:29;2.97;;;2.03;;
67981;SDS011;64109;52.148;4.466;2023-06-26T07:34:55;3.90;;;1.40;;
67981;SDS011;64109;52.148;4.466;2023-06-26T07:37:21;3.92;;;1.52;;
67981;SDS011;64109;52.148;4.466;2023-06-26T07:39:48;3.13;;;2.20;;
67981;SDS011;64109;52.148;4.466;2023-06-26T07:42:14;1.95;;;1.13;;
67981;SDS011;64109;52.148;4.466;2023-06-26T07:44:43;3.45;;;1.58;;
67981;SDS011;64109;52.148;4.466;2023-06-26T07:47:10;3.53;;;1.40;;
67981;SDS011;64109;52.148;4.466;2023-06-26T07:49:36;3.33;;;1.42;;
67981;SDS011;64109;52.148;4.466;2023-06-26T07:52:04;2.40;;;1.27;;
67981;SDS011;64109;52.148;4.466;2023-06-26T07:54:30;2.53;;;2.17;;
67981;SDS011;64109;52.148;4.466;2023-06-26T07:57:00;3.15;;;2.65;;
67981;SDS011;64109;52.148;4.466;2023-06-26T07:59:27;2.67;;;1.80;;
67981;SDS011;64109;52.148;4.466;2023-06-26T08:01:54;2.83;;;1.73;;
67981;SDS011;64109;52.148;4.466;2023-06-26T08:04:21;3.47;;;1.65;;
67981;SDS011;64109;52.148;4.466;2023-06-26T08:06:51;2.70;;;1.83;;
67981;SDS011;64109;52.148;4.466;2023-06-26T08:09:18;2.33;;;1.02;;
67981;SDS011;64109;52.148;4.466;2023-06-26T08:11:44;2.03;;;1.00;;
67981;SDS011;64109;52.148;4.466;2023-06-26T08:14:10;3.00;;;2.10;;
67981;SDS011;64109;52.148;4.466;2023-06-26T08:16:39;2.35;;;1.30;;
67981;SDS011;64109;52.148;4.466;2023-06-26T08:19:05;3.67;;;1.20;;
67981;SDS011;64109;52.148;4.466;2023-06-26T08:21:31;2.30;;;1.20;;
67981;SDS011;64109;52.148;4.466;2023-06-26T08:23:57;5.15;;;1.88;;
67981;SDS011;64109;52.148;4.466;2023-06-26T08:26:23;3.08;;;2.75;;
67981;SDS011;64109;52.148;4.466;2023-06-26T08:28:49;2.20;;;1.23;;
67981;SDS011;64109;52.148;4.466;2023-06-26T08:31:16;2.92;;;2.00;;
67981;SDS011;64109;52.148;4.466;2023-06-26T08:33:42;3.28;;;2.35;;
67981;SDS011;64109;52.148;4.466;2023-06-26T08:36:08;2.08;;;1.15;;
67981;SDS011;64109;52.148;4.466;2023-06-26T08:38:34;2.40;;;1.20;;
67981;SDS011;64109;52.148;4.466;2023-06-26T08:41:00;3.35;;;1.20;;
67981;SDS011;64109;52.148;4.466;2023-06-26T08:43:26;2.33;;;2.13;;
67981;SDS011;64109;52.148;4.466;2023-06-26T08:45:53;2.75;;;1.38;;
67981;SDS011;64109;52.148;4.466;2023-06-26T08:48:20;3.28;;;1.45;;
67981;SDS011;64109;52.148;4.466;2023-06-26T08:50:49;2.45;;;1.33;;
67981;SDS011;64109;52.148;4.466;2023-06-26T08:53:22;3.78;;;1.30;;
67981;SDS011;64109;52.148;4.466;2023-06-26T08:55:49;2.92;;;1.40;;
67981;SDS011;64109;52.148;4.466;2023-06-26T08:58:18;2.95;;;1.88;;
67981;SDS011;64109;52.148;4.466;2023-06-26T09:00:44;2.95;;;2.10;;
67981;SDS011;64109;52.148;4.466;2023-06-26T09:03:10;1.95;;;1.05;;
67981;SDS011;64109;52.148;4.466;2023-06-26T09:05:36;2.65;;;0.98;;
67981;SDS011;64109;52.148;4.466;2023-06-26T09:08:02;3.55;;;1.73;;
67981;SDS011;64109;52.148;4.466;2023-06-26T09:10:28;3.38;;;2.03;;
67981;SDS011;64109;52.148;4.466;2023-06-26T09:12:55;3.67;;;1.65;;
67981;SDS011;64109;52.148;4.466;2023-06-26T09:15:26;2.75;;;1.10;;
67981;SDS011;64109;52.148;4.466;2023-06-26T09:17:56;1.98;;;1.23;;
67981;SDS011;64109;52.148;4.466;2023-06-26T09:20:23;2.75;;;1.08;;
67981;SDS011;64109;52.148;4.466;2023-06-26T09:22:53;2.88;;;1.20;;
67981;SDS011;64109;52.148;4.466;2023-06-26T09:25:20;1.98;;;1.05;;
67981;SDS011;64109;52.148;4.466;2023-06-26T09:27:48;1.63;;;0.95;;
67981;SDS011;64109;52.148;4.466;2023-06-26T09:30:16;2.17;;;0.90;;
67981;SDS011;64109;52.148;4.466;2023-06-26T09:32:43;1.95;;;1.15;;
67981;SDS011;64109;52.148;4.466;2023-06-26T09:35:10;2.75;;;1.40;;
67981;SDS011;64109;52.148;4.466;2023-06-26T09:37:36;1.90;;;1.23;;
67981;SDS011;64109;52.148;4.466;2023-06-26T09:40:02;2.60;;;1.00;;
67981;SDS011;64109;52.148;4.466;2023-06-26T09:42:29;2.13;;;1.20;;
67981;SDS011;64109;52.148;4.466;2023-06-26T09:44:56;2.33;;;1.00;;
67981;SDS011;64109;52.148;4.466;2023-06-26T09:47:22;2.25;;;1.70;;
67981;SDS011;64109;52.148;4.466;2023-06-26T09:49:48;2.17;;;1.10;;
67981;SDS011;64109;52.148;4.466;2023-06-26T09:52:15;1.58;;;0.90;;
67981;SDS011;64109;52.148;4.466;2023-06-26T09:54:44;1.80;;;1.08;;
67981;SDS011;64109;52.148;4.466;2023-06-26T09:57:12;1.90;;;1.58;;
67981;SDS011;64109;52.148;4.466;2023-06-26T09:59:39;1.95;;;1.17;;
67981;SDS011;64109;52.148;4.466;2023-06-26T10:02:05;2.22;;;1.15;;
67981;SDS011;64109;52.148;4.466;2023-06-26T10:04:32;1.52;;;1.25;;
67981;SDS011;64109;52.148;4.466;2023-06-26T10:06:58;2.67;;;1.85;;
67981;SDS011;64109;52.148;4.466;2023-06-26T10:09:26;9.75;;;1.20;;
67981;SDS011;64109;52.148;4.466;2023-06-26T10:14:20;2.15;;;1.02;;
67981;SDS011;64109;52.148;4.466;2023-06-26T10:16:48;2.10;;;1.13;;
67981;SDS011;64109;52.148;4.466;2023-06-26T10:19:16;2.28;;;1.10;;
67981;SDS011;64109;52.148;4.466;2023-06-26T10:21:58;3.28;;;1.80;;
67981;SDS011;64109;52.148;4.466;2023-06-26T10:24:26;1.70;;;1.13;;
67981;SDS011;64109;52.148;4.466;2023-06-26T10:27:37;2.47;;;1.10;;
67981;SDS011;64109;52.148;4.466;2023-06-26T10:29:53;2.30;;;1.10;;
67981;SDS011;64109;52.148;4.466;2023-06-26T10:32:20;1.95;;;0.95;;
67981;SDS011;64109;52.148;4.466;2023-06-26T10:34:47;3.20;;;0.88;;
67981;SDS011;64109;52.148;4.466;2023-06-26T10:37:13;2.92;;;0.95;;
67981;SDS011;64109;52.148;4.466;2023-06-26T10:39:45;1.80;;;1.08;;
67981;SDS011;64109;52.148;4.466;2023-06-26T10:42:15;1.77;;;0.93;;
67981;SDS011;64109;52.148;4.466;2023-06-26T10:44:42;2.88;;;1.10;;
67981;SDS011;64109;52.148;4.466;2023-06-26T10:47:08;3.78;;;1.15;;
67981;SDS011;64109;52.148;4.466;2023-06-26T10:49:36;1.70;;;0.95;;
67981;SDS011;64109;52.148;4.466;2023-06-26T10:52:02;2.22;;;1.05;;
67981;SDS011;64109;52.148;4.466;2023-06-26T10:54:28;2.85;;;1.90;;
67981;SDS011;64109;52.148;4.466;2023-06-26T10:56:55;1.40;;;0.80;;
67981;SDS011;64109;52.148;4.466;2023-06-26T10:59:25;2.60;;;1.00;;
67981;SDS011;64109;52.148;4.466;2023-06-26T11:01:55;3.42;;;0.80;;
67981;SDS011;64109;52.148;4.466;2023-06-26T11:04:43;2.30;;;0.80;;
67981;SDS011;64109;52.148;4.466;2023-06-26T11:07:23;2.65;;;1.00;;
67981;SDS011;64109;52.148;4.466;2023-06-26T11:09:56;3.00;;;1.42;;
67981;SDS011;64109;52.148;4.466;2023-06-26T11:15:10;1.63;;;1.00;;
67981;SDS011;64109;52.148;4.466;2023-06-26T11:17:37;2.08;;;1.88;;
67981;SDS011;64109;52.148;4.466;2023-06-26T11:20:07;2.80;;;1.08;;
67981;SDS011;64109;52.148;4.466;2023-06-26T11:22:34;2.55;;;0.80;;
67981;SDS011;64109;52.148;4.466;2023-06-26T11:25:01;1.80;;;0.80;;
67981;SDS011;64109;52.148;4.466;2023-06-26T11:27:46;1.60;;;0.90;;
67981;SDS011;64109;52.148;4.466;2023-06-26T11:30:22;2.55;;;0.90;;
67981;SDS011;64109;52.148;4.466;2023-06-26T11:32:48;2.58;;;1.65;;
67981;SDS011;64109;52.148;4.466;2023-06-26T11:35:23;2.80;;;2.03;;
67981;SDS011;64109;52.148;4.466;2023-06-26T11:37:56;1.88;;;0.90;;
67981;SDS011;64109;52.148;4.466;2023-06-26T11:40:25;1.95;;;1.08;;
67981;SDS011;64109;52.148;4.466;2023-06-26T11:42:57;1.58;;;1.27;;
67981;SDS011;64109;52.148;4.466;2023-06-26T11:45:23;1.73;;;1.00;;
67981;SDS011;64109;52.148;4.466;2023-06-26T11:47:49;1.75;;;0.73;;
67981;SDS011;64109;52.148;4.466;2023-06-26T11:50:15;2.03;;;0.80;;
67981;SDS011;64109;52.148;4.466;2023-06-26T11:52:42;1.38;;;1.02;;
67981;SDS011;64109;52.148;4.466;2023-06-26T11:55:08;3.17;;;0.90;;
67981;SDS011;64109;52.148;4.466;2023-06-26T11:57:35;2.40;;;0.90;;
67981;SDS011;64109;52.148;4.466;2023-06-26T12:00:14;2.92;;;1.27;;
67981;SDS011;64109;52.148;4.466;2023-06-26T12:02:41;3.63;;;1.00;;
67981;SDS011;64109;52.148;4.466;2023-06-26T12:05:07;1.58;;;0.90;;
67981;SDS011;64109;52.148;4.466;2023-06-26T12:07:33;3.28;;;1.27;;
67981;SDS011;64109;52.148;4.466;2023-06-26T12:10:00;2.10;;;0.90;;
67981;SDS011;64109;52.148;4.466;2023-06-26T12:12:27;1.70;;;0.82;;
67981;SDS011;64109;52.148;4.466;2023-06-26T12:14:53;2.40;;;0.85;;
67981;SDS011;64109;52.148;4.466;2023-06-26T12:17:21;1.77;;;0.90;;
67981;SDS011;64109;52.148;4.466;2023-06-26T12:19:48;2.10;;;1.83;;
67981;SDS011;64109;52.148;4.466;2023-06-26T12:22:14;1.92;;;0.90;;
67981;SDS011;64109;52.148;4.466;2023-06-26T12:24:42;1.30;;;0.82;;
67981;SDS011;64109;52.148;4.466;2023-06-26T12:27:12;2.47;;;0.88;;
67981;SDS011;64109;52.148;4.466;2023-06-26T12:29:39;1.98;;;1.38;;
67981;SDS011;64109;52.148;4.466;2023-06-26T12:32:08;1.75;;;0.63;;
67981;SDS011;64109;52.148;4.466;2023-06-26T12:34:35;1.30;;;0.70;;
67981;SDS011;64109;52.148;4.466;2023-06-26T12:37:08;1.70;;;0.80;;
67981;SDS011;64109;52.148;4.466;2023-06-26T12:42:19;3.03;;;1.67;;
67981;SDS011;64109;52.148;4.466;2023-06-26T12:44:46;2.28;;;0.98;;
67981;SDS011;64109;52.148;4.466;2023-06-26T12:47:13;2.25;;;1.38;;
67981;SDS011;64109;52.148;4.466;2023-06-26T12:49:40;1.48;;;0.70;;
67981;SDS011;64109;52.148;4.466;2023-06-26T12:52:13;1.40;;;0.75;;
67981;SDS011;64109;52.148;4.466;2023-06-26T12:54:40;1.95;;;1.50;;
67981;SDS011;64109;52.148;4.466;2023-06-26T12:57:06;1.88;;;0.80;;
67981;SDS011;64109;52.148;4.466;2023-06-26T12:59:33;1.88;;;1.00;;
67981;SDS011;64109;52.148;4.466;2023-06-26T13:01:59;1.92;;;0.77;;
67981;SDS011;64109;52.148;4.466;2023-06-26T13:04:25;1.73;;;1.50;;
67981;SDS011;64109;52.148;4.466;2023-06-26T13:06:52;2.20;;;0.70;;
67981;SDS011;64109;52.148;4.466;2023-06-26T13:09:22;1.90;;;1.50;;
67981;SDS011;64109;52.148;4.466;2023-06-26T13:11:48;2.15;;;0.85;;
67981;SDS011;64109;52.148;4.466;2023-06-26T13:14:14;2.63;;;1.02;;
67981;SDS011;64109;52.148;4.466;2023-06-26T13:16:40;2.17;;;1.00;;
67981;SDS011;64109;52.148;4.466;2023-06-26T13:19:07;2.17;;;1.17;;
67981;SDS011;64109;52.148;4.466;2023-06-26T13:21:33;1.52;;;0.90;;
67981;SDS011;64109;52.148;4.466;2023-06-26T13:23:59;4.88;;;0.93;;
67981;SDS011;64109;52.148;4.466;2023-06-26T13:26:25;1.90;;;1.42;;
67981;SDS011;64109;52.148;4.466;2023-06-26T13:28:53;1.67;;;1.00;;
67981;SDS011;64109;52.148;4.466;2023-06-26T13:31:19;2.80;;;1.10;;
67981;SDS011;64109;52.148;4.466;2023-06-26T13:33:45;3.08;;;0.82;;
67981;SDS011;64109;52.148;4.466;2023-06-26T13:36:13;1.30;;;0.80;;
67981;SDS011;64109;52.148;4.466;2023-06-26T13:38:39;1.60;;;0.73;;
67981;SDS011;64109;52.148;4.466;2023-06-26T13:41:05;1.58;;;0.88;;
67981;SDS011;64109;52.148;4.466;2023-06-26T13:43:31;2.03;;;1.00;;
67981;SDS011;64109;52.148;4.466;2023-06-26T13:45:57;1.58;;;0.70;;
67981;SDS011;64109;52.148;4.466;2023-06-26T13:48:23;1.70;;;0.98;;
67981;SDS011;64109;52.148;4.466;2023-06-26T13:50:50;2.30;;;0.93;;
67981;SDS011;64109;52.148;4.466;2023-06-26T13:53:16;2.15;;;1.70;;
67981;SDS011;64109;52.148;4.466;2023-06-26T13:55:42;1.67;;;1.58;;
67981;SDS011;64109;52.148;4.466;2023-06-26T13:58:08;1.75;;;0.82;;
67981;SDS011;64109;52.148;4.466;2023-06-26T14:00:35;2.28;;;0.93;;
67981;SDS011;64109;52.148;4.466;2023-06-26T14:03:04;2.25;;;0.88;;
67981;SDS011;64109;52.148;4.466;2023-06-26T14:05:35;1.50;;;0.95;;
67981;SDS011;64109;52.148;4.466;2023-06-26T14:08:02;1.83;;;0.73;;
67981;SDS011;64109;52.148;4.466;2023-06-26T14:10:28;1.75;;;0.90;;
67981;SDS011;64109;52.148;4.466;2023-06-26T14:12:54;1.50;;;1.15;;
67981;SDS011;64109;52.148;4.466;2023-06-26T14:15:20;1.60;;;0.70;;
67981;SDS011;64109;52.148;4.466;2023-06-26T14:17:46;1.85;;;1.00;;
67981;SDS011;64109;52.148;4.466;2023-06-26T14:20:16;1.45;;;0.73;;
67981;SDS011;64109;52.148;4.466;2023-06-26T14:22:42;1.30;;;1.13;;
67981;SDS011;64109;52.148;4.466;2023-06-26T14:25:09;1.42;;;1.33;;
67981;SDS011;64109;52.148;4.466;2023-06-26T14:27:37;2.17;;;1.98;;
67981;SDS011;64109;52.148;4.466;2023-06-26T14:30:03;2.05;;;1.85;;
67981;SDS011;64109;52.148;4.466;2023-06-26T14:32:29;1.45;;;0.88;;
67981;SDS011;64109;52.148;4.466;2023-06-26T14:34:56;1.20;;;0.80;;
67981;SDS011;64109;52.148;4.466;2023-06-26T14:37:22;1.65;;;1.08;;
67981;SDS011;64109;52.148;4.466;2023-06-26T14:39:48;1.83;;;1.45;;
67981;SDS011;64109;52.148;4.466;2023-06-26T14:42:14;0.80;;;0.65;;
67981;SDS011;64109;52.148;4.466;2023-06-26T14:44:41;1.23;;;0.80;;
67981;SDS011;64109;52.148;4.466;2023-06-26T14:47:07;3.08;;;1.00;;
67981;SDS011;64109;52.148;4.466;2023-06-26T14:49:33;1.60;;;1.23;;
67981;SDS011;64109;52.148;4.466;2023-06-26T14:51:58;1.83;;;0.80;;
67981;SDS011;64109;52.148;4.466;2023-06-26T14:54:25;2.50;;;0.90;;
67981;SDS011;64109;52.148;4.466;2023-06-26T14:56:51;1.05;;;0.93;;
67981;SDS011;64109;52.148;4.466;2023-06-26T14:59:17;1.40;;;0.80;;